Time;durP1;ratioP1;P1;durP2;ratioP2;P2;SDS_P1;SDS_P2;PMS_P1;PMS_P2;Temp;Humidity;BMP_temperature;BMP_pressure;BME280_temperature;BME280_humidity;BME280_pressure;Samples;Min_cycle;Max_cycle;Signal;HPM_P1;HPM_P2
2023/12/01 00:01:51;;;;;;;27.63;25.07;;;3.20;99.90;;;;;;4947442;29;20194;-78
2023/12/01 00:04:20;;;;;;;28.40;25.60;;;3.20;99.90;;;;;;4946850;29;20222;-78
2023/12/01 00:06:46;;;;;;;30.40;27.30;;;3.10;99.90;;;;;;4946336;28;20230;-78
2023/12/01 00:09:13;;;;;;;25.17;22.83;;;3.10;99.90;;;;;;4964867;28;20198;-78
2023/12/01 00:11:40;;;;;;;29.27;26.40;;;3.10;99.90;;;;;;4967175;28;20206;-79
2023/12/01 00:14:07;;;;;;;28.77;25.90;;;3.00;99.90;;;;;;4947092;29;20258;-78
2023/12/01 00:16:34;;;;;;;25.83;23.40;;;3.00;99.90;;;;;;4946597;28;20214;-79
2023/12/01 00:19:00;;;;;;;30.53;27.53;;;3.10;99.90;;;;;;4964454;28;20195;-79
2023/12/01 00:21:29;;;;;;;28.27;25.53;;;3.00;99.90;;;;;;4964642;28;20211;-79
2023/12/01 00:23:55;;;;;;;29.33;26.53;;;3.00;99.90;;;;;;4964083;28;20649;-78
2023/12/01 00:26:22;;;;;;;29.57;26.50;;;3.00;99.90;;;;;;4946785;29;20250;-79
2023/12/01 00:28:57;;;;;;;30.40;27.27;;;3.10;99.90;;;;;;4940043;29;20190;-78
2023/12/01 00:31:23;;;;;;;28.77;26.07;;;3.00;99.90;;;;;;4948860;29;20202;-79
2023/12/01 00:33:51;;;;;;;28.97;26.10;;;3.00;99.90;;;;;;4946872;28;20717;-78
2023/12/01 00:36:18;;;;;;;29.87;26.97;;;3.00;99.90;;;;;;4946083;28;20206;-78
2023/12/01 00:38:46;;;;;;;31.00;27.80;;;3.00;99.90;;;;;;4946228;28;20210;-79
2023/12/01 00:41:14;;;;;;;29.90;26.97;;;3.00;99.90;;;;;;4946360;29;20209;-77
2023/12/01 00:43:40;;;;;;;31.30;28.10;;;3.00;99.90;;;;;;4947310;28;20253;-79
2023/12/01 00:46:07;;;;;;;29.77;26.77;;;3.00;99.90;;;;;;4947047;29;20199;-79
2023/12/01 00:48:34;;;;;;;29.17;26.27;;;3.00;99.90;;;;;;4965562;28;20203;-78
2023/12/01 00:51:02;;;;;;;29.30;26.37;;;3.00;99.90;;;;;;4953208;29;20206;-78
2023/12/01 00:53:29;;;;;;;28.13;25.40;;;3.10;99.90;;;;;;4946377;28;20291;-78
2023/12/01 00:55:57;;;;;;;29.83;26.97;;;3.10;99.90;;;;;;4964173;28;20191;-78
2023/12/01 00:58:24;;;;;;;31.50;28.50;;;3.10;99.90;;;;;;4964212;28;20623;-78
2023/12/01 01:00:52;;;;;;;31.93;28.73;;;3.10;99.90;;;;;;4964144;28;20686;-78
2023/12/01 01:03:19;;;;;;;30.47;27.27;;;3.00;99.90;;;;;;4954585;28;20582;-78
2023/12/01 01:05:46;;;;;;;31.60;28.23;;;3.00;99.90;;;;;;4947398;28;20213;-78
2023/12/01 01:08:13;;;;;;;31.27;27.93;;;3.00;99.90;;;;;;4963857;28;20199;-78
2023/12/01 01:10:40;;;;;;;29.43;26.60;;;3.00;99.90;;;;;;4945173;29;20211;-79
2023/12/01 01:13:08;;;;;;;30.17;27.27;;;2.90;99.90;;;;;;4964043;28;20591;-78
2023/12/01 01:15:35;;;;;;;32.40;29.07;;;2.90;99.90;;;;;;4946867;28;20230;-78
2023/12/01 01:18:01;;;;;;;33.83;30.33;;;2.90;99.90;;;;;;4946610;29;20217;-78
2023/12/01 01:20:28;;;;;;;33.23;29.83;;;2.90;99.90;;;;;;4946327;28;20203;-78
2023/12/01 01:22:55;;;;;;;36.03;32.07;;;2.90;99.90;;;;;;4949964;28;20230;-79
2023/12/01 01:25:22;;;;;;;30.70;27.87;;;2.90;99.90;;;;;;4950807;29;20281;-77
2023/12/01 01:27:50;;;;;;;31.87;28.63;;;2.90;99.90;;;;;;4963761;28;20202;-78
2023/12/01 01:30:18;;;;;;;30.73;27.87;;;3.00;99.90;;;;;;4946405;28;20216;-78
2023/12/01 01:32:46;;;;;;;32.03;28.93;;;3.00;99.90;;;;;;4946372;29;20241;-78
2023/12/01 01:35:13;;;;;;;31.77;28.53;;;3.00;99.90;;;;;;4946502;29;20219;-79
2023/12/01 01:37:40;;;;;;;28.73;26.10;;;3.00;99.90;;;;;;4946832;28;20213;-79
2023/12/01 01:40:09;;;;;;;28.40;25.80;;;3.00;99.90;;;;;;4963496;28;20202;-78
2023/12/01 01:42:36;;;;;;;31.27;28.23;;;2.90;99.90;;;;;;4945954;29;20203;-78
2023/12/01 01:45:03;;;;;;;34.40;29.97;;;2.90;99.90;;;;;;4961586;28;20215;-78
2023/12/01 01:47:32;;;;;;;31.73;28.73;;;2.90;99.90;;;;;;4963706;28;20210;-78
2023/12/01 01:49:59;;;;;;;32.73;29.43;;;2.80;99.90;;;;;;4962434;28;20202;-78
2023/12/01 01:52:27;;;;;;;29.00;26.30;;;2.80;99.90;;;;;;4946083;29;20214;-79
2023/12/01 01:54:54;;;;;;;32.20;29.07;;;2.80;99.90;;;;;;4945100;28;20310;-77
2023/12/01 01:57:21;;;;;;;30.97;28.00;;;2.80;99.90;;;;;;4941312;29;20216;-80
2023/12/01 01:59:48;;;;;;;32.37;29.13;;;2.80;99.90;;;;;;4943821;29;20554;-79
2023/12/01 02:02:15;;;;;;;30.20;27.30;;;2.70;99.90;;;;;;4945550;28;20226;-79
2023/12/01 02:04:43;;;;;;;28.57;25.97;;;2.70;99.90;;;;;;4947779;28;20219;-78
2023/12/01 02:07:26;;;;;;;29.23;26.53;;;2.70;99.90;;;;;;4950318;29;20203;-78
2023/12/01 02:09:53;;;;;;;31.53;28.33;;;2.70;99.90;;;;;;4944439;28;20277;-78
2023/12/01 02:12:19;;;;;;;28.30;25.50;;;2.70;99.90;;;;;;4945202;29;20203;-79
2023/12/01 02:14:46;;;;;;;28.77;26.07;;;2.70;99.90;;;;;;4940011;28;20238;-78
2023/12/01 02:17:13;;;;;;;28.03;25.33;;;2.70;99.90;;;;;;4944578;29;20199;-79
2023/12/01 02:19:40;;;;;;;29.07;26.10;;;2.70;99.90;;;;;;4952867;28;20592;-78
2023/12/01 02:22:08;;;;;;;30.70;27.60;;;2.70;99.90;;;;;;4944505;29;20195;-79
2023/12/01 02:24:35;;;;;;;29.33;26.30;;;2.60;99.90;;;;;;4944697;28;20257;-79
2023/12/01 02:27:02;;;;;;;29.03;26.33;;;2.60;99.90;;;;;;4947702;28;20209;-78
2023/12/01 02:29:29;;;;;;;28.60;25.80;;;2.50;99.90;;;;;;4961663;28;20195;-78
2023/12/01 02:31:56;;;;;;;28.60;25.87;;;2.50;99.90;;;;;;4944260;28;20704;-79
2023/12/01 02:34:23;;;;;;;28.37;25.57;;;2.50;99.90;;;;;;4961429;28;20230;-78
2023/12/01 02:36:50;;;;;;;30.33;27.13;;;2.50;99.90;;;;;;4945177;28;20206;-79
2023/12/01 02:39:18;;;;;;;30.97;27.67;;;2.40;99.90;;;;;;4943996;29;20621;-79
2023/12/01 02:41:45;;;;;;;31.47;28.23;;;2.40;99.90;;;;;;4961169;28;20209;-79
2023/12/01 02:44:11;;;;;;;30.63;27.63;;;2.40;99.90;;;;;;4943677;28;20225;-79
2023/12/01 02:46:38;;;;;;;31.07;27.97;;;2.40;99.90;;;;;;4943970;29;20202;-78
2023/12/01 02:49:05;;;;;;;32.80;29.47;;;2.30;99.90;;;;;;4961028;28;20205;-78
2023/12/01 02:51:32;;;;;;;31.70;28.53;;;2.30;99.90;;;;;;4944642;29;20199;-78
2023/12/01 02:53:58;;;;;;;31.40;28.27;;;2.30;99.90;;;;;;4943719;28;20231;-79
2023/12/01 02:56:27;;;;;;;30.40;27.30;;;2.30;99.90;;;;;;4944370;29;20680;-79
2023/12/01 02:58:54;;;;;;;31.80;28.70;;;2.30;99.90;;;;;;4961153;28;20203;-79
2023/12/01 03:01:21;;;;;;;31.63;28.53;;;2.30;99.90;;;;;;4944040;29;20230;-79
2023/12/01 03:03:48;;;;;;;32.10;28.77;;;2.20;99.90;;;;;;4962132;28;20210;-79
2023/12/01 03:06:15;;;;;;;30.57;27.53;;;2.20;99.90;;;;;;4944408;28;20274;-79
2023/12/01 03:08:41;;;;;;;33.30;30.00;;;2.20;99.90;;;;;;4943618;28;20845;-79
2023/12/01 03:11:08;;;;;;;32.10;29.00;;;2.20;99.90;;;;;;4961311;28;20199;-79
2023/12/01 03:13:37;;;;;;;30.03;27.20;;;2.20;99.90;;;;;;4943960;29;20226;-79
2023/12/01 03:16:04;;;;;;;32.93;29.63;;;2.10;99.90;;;;;;4943009;29;20194;-79
2023/12/01 03:18:31;;;;;;;32.80;29.70;;;2.10;99.90;;;;;;4944945;29;20207;-79
2023/12/01 03:20:57;;;;;;;31.40;28.27;;;2.10;99.90;;;;;;4943774;28;20206;-79
2023/12/01 03:23:24;;;;;;;32.03;28.73;;;2.10;99.90;;;;;;4956024;29;20198;-79
2023/12/01 03:25:51;;;;;;;28.83;26.20;;;2.10;99.90;;;;;;4965434;28;20222;-79
2023/12/01 03:28:18;;;;;;;29.00;26.20;;;2.10;99.90;;;;;;4948368;29;20582;-79
2023/12/01 03:30:46;;;;;;;26.93;24.43;;;2.10;99.90;;;;;;4967167;28;20210;-78
2023/12/01 03:33:13;;;;;;;31.10;27.80;;;2.00;99.90;;;;;;4954328;29;20222;-78
2023/12/01 03:35:39;;;;;;;29.90;27.10;;;2.10;99.90;;;;;;4953429;29;20210;-77
2023/12/01 03:38:06;;;;;;;30.70;27.87;;;2.10;99.90;;;;;;4952758;29;20199;-77
2023/12/01 03:40:33;;;;;;;32.47;29.37;;;2.10;99.90;;;;;;4969431;28;20217;-78
2023/12/01 03:43:00;;;;;;;30.90;27.97;;;2.10;99.90;;;;;;4948600;28;20199;-78
2023/12/01 03:45:27;;;;;;;30.83;27.90;;;2.10;99.90;;;;;;4961772;28;20517;-78
2023/12/01 03:47:55;;;;;;;32.17;29.20;;;2.10;99.90;;;;;;4963742;28;20199;-78
2023/12/01 03:50:22;;;;;;;31.60;28.40;;;2.10;99.90;;;;;;4945503;29;20206;-79
2023/12/01 03:52:51;;;;;;;31.83;28.63;;;2.10;99.90;;;;;;4963137;28;20214;-77
2023/12/01 04:11:27;;;;;;;31.23;28.20;;;2.10;99.90;;;;;;4312694;23;20239;-79
2023/12/01 04:14:05;;;;;;;30.37;27.53;;;2.10;99.90;;;;;;4938486;29;20218;-79
2023/12/01 04:30:40;;;;;;;31.13;28.03;;;2.10;99.90;;;;;;4983098;28;20215;-82
2023/12/01 04:36:28;;;;;;;30.87;27.87;;;2.10;99.90;;;;;;5027491;23;20234;-81
2023/12/01 04:39:33;;;;;;;29.47;26.67;;;2.00;99.90;;;;;;4957477;28;20438;-78
2023/12/01 04:42:37;;;;;;;28.70;25.97;;;2.00;99.90;;;;;;4964268;28;20185;-81
2023/12/01 04:48:53;;;;;;;30.87;27.87;;;2.00;99.90;;;;;;4973118;28;20198;-80
2023/12/01 04:51:36;;;;;;;30.00;27.10;;;2.00;99.90;;;;;;4960216;29;20209;-80
2023/12/01 04:54:28;;;;;;;31.17;28.37;;;2.00;99.90;;;;;;4958956;28;20282;-81
2023/12/01 04:57:39;;;;;;;;;;;;;;;;;;;;;
2023/12/01 05:01:21;;;;;;;32.30;29.03;;;2.00;99.90;;;;;;4955720;28;20440;-81
2023/12/01 05:07:57;;;;;;;31.60;28.80;;;1.90;99.90;;;;;;4939831;28;20226;-81
2023/12/01 05:10:46;;;;;;;29.43;26.83;;;1.90;99.90;;;;;;4945389;28;20694;-80
2023/12/01 05:13:14;;;;;;;29.83;27.20;;;2.00;99.90;;;;;;4944912;29;20442;-80
2023/12/01 05:16:20;;;;;;;30.20;27.43;;;1.90;99.90;;;;;;4940397;28;20446;-81
2023/12/01 05:19:27;;;;;;;;;;;;;;;;;;;;;
2023/12/01 05:22:00;;;;;;;29.20;26.50;;;2.00;99.90;;;;;;4943731;28;20238;-81
2023/12/01 05:24:29;;;;;;;30.13;27.47;;;2.00;99.90;;;;;;4957053;28;20748;-80
2023/12/01 05:26:56;;;;;;;30.13;27.57;;;2.00;99.90;;;;;;4940839;28;20454;-80
2023/12/01 05:30:05;;;;;;;30.57;27.87;;;2.00;99.90;;;;;;4965292;28;20277;-81
2023/12/01 06:40:11;;;;;;;29.03;26.47;;;2.00;99.90;;;;;;4950511;28;20213;-80
2023/12/01 07:21:42;;;;;;;26.90;24.67;;;1.90;99.90;;;;;;4816256;29;20199;-81
2023/12/01 07:24:11;;;;;;;26.00;23.90;;;1.90;99.90;;;;;;4829503;29;21046;-79
2023/12/01 08:27:26;;;;;;;24.73;22.83;;;2.20;99.90;;;;;;4829407;29;20465;-80
2023/12/01 08:30:22;;;;;;;25.23;23.13;;;2.20;99.90;;;;;;4830511;29;20287;-81
2023/12/01 08:36:50;;;;;;;24.10;22.10;;;2.20;99.90;;;;;;4760740;30;20653;-79
2023/12/01 08:47:05;;;;;;;24.17;22.17;;;2.20;99.90;;;;;;4734876;30;20445;-80
2023/12/01 08:49:32;;;;;;;25.63;23.33;;;2.20;99.90;;;;;;4744651;30;20240;-80
2023/12/01 08:56:03;;;;;;;26.50;24.10;;;2.20;99.90;;;;;;4710776;30;20489;-80
2023/12/01 08:58:30;;;;;;;25.90;23.43;;;2.20;99.90;;;;;;4768522;29;20285;-80
2023/12/01 09:13:47;;;;;;;23.73;21.83;;;2.40;99.90;;;;;;4751604;29;20235;-77
2023/12/01 09:16:17;;;;;;;23.87;21.87;;;2.40;99.90;;;;;;4828236;29;20200;-81
2023/12/01 09:26:39;;;;;;;24.87;22.57;;;2.50;99.90;;;;;;4752000;29;20202;-79
2023/12/01 10:11:01;;;;;;;;;;;;;;;;;;;;;
2023/12/01 10:17:26;;;;;;;24.63;22.63;;;2.60;99.90;;;;;;4837237;29;20207;-79
2023/12/01 10:20:25;;;;;;;25.80;23.50;;;2.60;99.90;;;;;;4824899;29;20217;-79
2023/12/01 10:22:59;;;;;;;24.53;22.53;;;2.60;99.90;;;;;;4837913;29;20260;-79
2023/12/01 10:26:15;;;;;;;23.87;21.97;;;2.70;99.90;;;;;;4838136;29;20225;-78
2023/12/01 10:32:20;;;;;;;24.27;22.20;;;2.60;99.90;;;;;;4832983;29;20218;-79
2023/12/01 10:41:09;;;;;;;24.10;22.10;;;2.70;99.90;;;;;;4815941;29;20203;-79
2023/12/01 10:43:41;;;;;;;25.17;22.97;;;2.70;99.90;;;;;;4838808;29;20230;-79
2023/12/01 10:46:11;;;;;;;22.93;21.13;;;2.60;99.90;;;;;;4834136;29;20247;-79
2023/12/01 10:49:02;;;;;;;23.07;21.03;;;2.60;99.90;;;;;;4841233;29;20210;-79
2023/12/01 10:55:29;;;;;;;24.70;22.70;;;2.60;99.90;;;;;;4779143;29;20333;-79
2023/12/01 10:58:37;;;;;;;22.90;20.80;;;2.60;99.90;;;;;;4829829;29;20218;-79
2023/12/01 11:01:11;;;;;;;25.63;23.43;;;2.70;99.90;;;;;;4853629;29;20237;-79
2023/12/01 11:04:00;;;;;;;23.73;21.77;;;2.70;99.90;;;;;;4837561;29;20231;-79
2023/12/01 11:32:56;;;;;;;27.37;24.87;;;2.40;99.90;;;;;;4735837;30;20608;-80
2023/12/01 12:14:01;;;;;;;27.43;25.00;;;2.30;99.90;;;;;;4840139;29;20294;-81
2023/12/01 12:16:35;;;;;;;28.13;25.63;;;2.30;99.90;;;;;;4840469;29;20274;-81
2023/12/01 12:19:03;;;;;;;26.57;24.10;;;2.30;99.90;;;;;;4851672;29;20206;-81
2023/12/01 13:13:58;;;;;;;26.07;23.57;;;2.10;99.90;;;;;;4839590;29;20232;-80
2023/12/01 13:16:36;;;;;;;25.40;23.27;;;2.00;99.90;;;;;;4833742;29;20486;-78
2023/12/01 13:19:14;;;;;;;24.83;22.63;;;2.00;99.90;;;;;;4865651;29;20293;-78
2023/12/01 13:21:49;;;;;;;24.80;22.70;;;2.00;99.90;;;;;;4875635;29;20442;-80
2023/12/01 13:24:24;;;;;;;24.83;22.80;;;2.00;99.90;;;;;;4853070;29;20621;-78
2023/12/01 13:26:51;;;;;;;25.93;23.63;;;2.00;99.90;;;;;;4860673;29;20218;-79
2023/12/01 13:29:19;;;;;;;24.20;22.20;;;2.00;99.90;;;;;;4890269;29;20201;-79
2023/12/01 13:31:46;;;;;;;25.33;23.23;;;2.00;99.90;;;;;;4876199;29;20449;-79
2023/12/01 13:46:15;;;;;;;25.63;23.50;;;2.10;99.90;;;;;;4765243;30;20359;-81
2023/12/01 13:48:42;;;;;;;25.13;23.13;;;2.10;99.90;;;;;;4768174;29;20333;-78
2023/12/01 13:51:09;;;;;;;24.97;22.97;;;2.10;99.90;;;;;;4840601;29;20452;-79
2023/12/01 13:53:36;;;;;;;25.90;23.80;;;2.00;99.90;;;;;;4887746;29;20466;-79
2023/12/01 13:56:03;;;;;;;25.47;23.37;;;2.00;99.90;;;;;;4897561;29;20220;-78
2023/12/01 13:58:30;;;;;;;25.43;23.33;;;2.00;99.90;;;;;;4876476;29;20669;-79
2023/12/01 14:00:57;;;;;;;25.83;23.73;;;2.00;99.90;;;;;;4873364;29;20453;-78
2023/12/01 14:03:25;;;;;;;25.07;23.07;;;2.00;99.90;;;;;;4872545;29;20232;-77
2023/12/01 14:05:52;;;;;;;24.23;22.23;;;2.00;99.90;;;;;;4865059;29;20194;-77
2023/12/01 14:08:22;;;;;;;23.00;21.30;;;2.00;99.90;;;;;;4882105;29;20212;-78
2023/12/01 14:10:52;;;;;;;23.03;21.27;;;2.00;99.90;;;;;;4865796;29;20204;-82
2023/12/01 14:13:21;;;;;;;25.07;22.87;;;2.00;99.90;;;;;;4888831;29;20482;-79
2023/12/01 14:15:47;;;;;;;26.37;23.97;;;2.00;99.90;;;;;;4871197;29;20233;-78
2023/12/01 14:18:14;;;;;;;26.87;24.47;;;2.00;99.90;;;;;;4892312;29;20204;-78
2023/12/01 14:20:42;;;;;;;25.40;23.27;;;1.90;99.90;;;;;;4891382;29;20590;-79
2023/12/01 14:23:08;;;;;;;27.87;25.47;;;2.00;99.90;;;;;;4888774;29;20261;-79
2023/12/01 14:25:35;;;;;;;27.13;24.83;;;2.00;99.90;;;;;;4876029;29;20711;-78
2023/12/01 14:28:02;;;;;;;28.37;25.83;;;1.90;99.90;;;;;;4867704;29;20250;-79
2023/12/01 14:30:29;;;;;;;26.70;24.40;;;1.90;99.90;;;;;;4867565;29;20198;-79
2023/12/01 14:32:57;;;;;;;28.10;25.67;;;1.90;99.90;;;;;;4896886;29;20260;-82
2023/12/01 14:35:24;;;;;;;28.70;26.10;;;1.90;99.90;;;;;;4872232;29;20228;-77
2023/12/01 14:37:53;;;;;;;28.47;25.90;;;1.90;99.90;;;;;;4884395;29;20205;-78
2023/12/01 14:40:29;;;;;;;28.90;26.37;;;1.90;99.90;;;;;;4892155;29;20208;-80
2023/12/01 14:42:56;;;;;;;28.97;26.33;;;1.90;99.90;;;;;;4876319;29;20294;-79
2023/12/01 14:45:24;;;;;;;28.17;25.67;;;1.80;99.90;;;;;;4865930;29;20297;-80
2023/12/01 14:47:51;;;;;;;30.23;27.53;;;1.80;99.90;;;;;;4870814;29;20215;-82
2023/12/01 14:50:18;;;;;;;28.70;26.13;;;1.80;99.90;;;;;;4867272;29;20529;-82
2023/12/01 14:52:45;;;;;;;28.77;26.17;;;1.80;99.90;;;;;;4876450;29;20212;-82
2023/12/01 14:55:13;;;;;;;29.90;27.13;;;1.80;99.90;;;;;;4866168;29;20279;-79
2023/12/01 14:57:40;;;;;;;29.60;26.90;;;1.80;99.90;;;;;;4881304;29;20460;-82
2023/12/01 15:00:10;;;;;;;29.87;27.23;;;1.80;99.90;;;;;;4873540;29;20213;-82
2023/12/01 15:02:37;;;;;;;28.60;26.10;;;1.80;99.90;;;;;;4870847;29;20206;-80
2023/12/01 15:05:05;;;;;;;30.63;27.63;;;1.80;99.90;;;;;;4866436;29;20218;-80
2023/12/01 15:07:32;;;;;;;30.60;27.70;;;1.80;99.90;;;;;;4884983;29;20214;-80
2023/12/01 15:09:59;;;;;;;30.57;27.77;;;1.70;99.90;;;;;;4875421;29;20284;-80
2023/12/01 15:12:27;;;;;;;29.80;27.13;;;1.80;99.90;;;;;;4886888;29;20213;-78
2023/12/01 15:14:57;;;;;;;31.17;28.10;;;1.70;99.90;;;;;;4872430;29;20485;-81
2023/12/01 15:17:24;;;;;;;30.93;28.13;;;1.80;99.90;;;;;;4882109;29;20494;-78
2023/12/01 15:19:51;;;;;;;30.40;27.67;;;1.80;99.90;;;;;;4882061;29;20209;-79
2023/12/01 15:22:18;;;;;;;30.53;27.80;;;1.80;99.90;;;;;;4896087;29;20264;-78
2023/12/01 15:24:45;;;;;;;28.33;25.97;;;1.70;99.90;;;;;;4892272;29;20224;-78
2023/12/01 15:27:12;;;;;;;30.47;27.77;;;1.80;99.90;;;;;;4891819;29;20441;-76
2023/12/01 15:29:40;;;;;;;29.47;26.87;;;1.80;99.90;;;;;;4897930;29;20223;-77
2023/12/01 15:32:08;;;;;;;28.63;26.03;;;1.80;99.90;;;;;;4878134;29;20458;-79
2023/12/01 15:34:35;;;;;;;29.00;26.40;;;1.70;99.90;;;;;;4897583;29;21067;-78
2023/12/01 15:37:01;;;;;;;28.17;25.80;;;1.70;99.90;;;;;;4896704;29;20245;-76
2023/12/01 15:39:28;;;;;;;29.10;26.60;;;1.70;99.90;;;;;;4885355;29;20468;-77
2023/12/01 15:41:55;;;;;;;28.00;25.53;;;1.70;99.90;;;;;;4898025;29;20205;-77
2023/12/01 15:44:22;;;;;;;28.13;25.50;;;1.70;99.90;;;;;;4884771;29;20493;-77
2023/12/01 15:46:50;;;;;;;28.27;26.00;;;1.70;99.90;;;;;;4889852;29;20813;-77
2023/12/01 15:49:17;;;;;;;27.30;25.00;;;1.70;99.90;;;;;;4878116;29;20225;-78
2023/12/01 15:51:44;;;;;;;26.57;24.27;;;1.70;99.90;;;;;;4873143;29;20208;-77
2023/12/01 15:54:11;;;;;;;29.20;26.60;;;1.70;99.90;;;;;;4883770;29;20220;-77
2023/12/01 15:56:38;;;;;;;26.73;24.43;;;1.70;99.90;;;;;;4886223;29;20222;-77
2023/12/01 15:59:04;;;;;;;27.13;24.73;;;1.60;99.90;;;;;;4886720;29;20201;-78
2023/12/01 16:01:31;;;;;;;26.17;23.87;;;1.70;99.90;;;;;;4879813;29;20504;-77
2023/12/01 16:04:00;;;;;;;27.37;25.07;;;1.70;99.90;;;;;;4871973;29;20251;-77
2023/12/01 16:06:27;;;;;;;26.87;24.47;;;1.70;99.90;;;;;;4896917;29;20197;-78
2023/12/01 16:08:53;;;;;;;27.07;24.77;;;1.70;99.90;;;;;;4901106;29;20201;-77
2023/12/01 16:11:20;;;;;;;27.80;25.37;;;1.70;99.90;;;;;;4872625;29;20973;-78
2023/12/01 16:13:47;;;;;;;28.33;25.70;;;1.70;99.90;;;;;;4865861;29;20229;-77
2023/12/01 16:16:14;;;;;;;27.30;25.00;;;1.70;99.90;;;;;;4885295;29;20546;-78
2023/12/01 16:18:41;;;;;;;28.10;25.70;;;1.70;99.90;;;;;;4874387;29;20462;-77
2023/12/01 16:21:18;;;;;;;27.47;25.17;;;1.70;99.90;;;;;;4897296;29;20456;-77
2023/12/01 16:23:45;;;;;;;27.20;24.87;;;1.70;99.90;;;;;;4876510;29;20260;-77
2023/12/01 16:26:12;;;;;;;29.40;26.90;;;1.70;99.90;;;;;;4887116;29;20853;-78
2023/12/01 16:28:39;;;;;;;27.53;25.27;;;1.60;99.90;;;;;;4882362;29;20487;-77
2023/12/01 16:31:08;;;;;;;28.83;26.53;;;1.70;99.90;;;;;;4877345;29;20465;-78
2023/12/01 16:33:35;;;;;;;28.87;26.33;;;1.70;99.90;;;;;;4879919;29;20473;-77
2023/12/01 16:36:02;;;;;;;28.83;26.33;;;1.60;99.90;;;;;;4874021;29;20221;-78
2023/12/01 16:38:30;;;;;;;29.10;26.50;;;1.60;99.90;;;;;;4873692;29;20624;-79
2023/12/01 16:40:57;;;;;;;29.10;26.60;;;1.60;99.90;;;;;;4891854;29;20657;-78
2023/12/01 16:43:24;;;;;;;29.63;27.13;;;1.60;99.90;;;;;;4885430;29;20445;-80
2023/12/01 16:45:51;;;;;;;29.90;26.97;;;1.70;99.90;;;;;;4870095;29;20450;-80
2023/12/01 16:48:21;;;;;;;27.83;25.53;;;1.70;99.90;;;;;;4891987;29;20840;-81
2023/12/01 16:50:49;;;;;;;29.07;26.57;;;1.70;99.90;;;;;;4883326;29;20265;-79
2023/12/01 16:53:48;;;;;;;28.10;25.63;;;1.70;99.90;;;;;;4882291;29;20240;-79
2023/12/01 16:56:21;;;;;;;28.17;25.73;;;1.60;99.90;;;;;;4897230;29;20220;-79
2023/12/01 16:58:48;;;;;;;28.43;26.03;;;1.60;99.90;;;;;;4870534;29;20518;-78
2023/12/01 17:05:06;;;;;;;29.33;26.70;;;1.60;99.90;;;;;;4824458;29;20468;-78
2023/12/01 17:07:33;;;;;;;29.27;26.73;;;1.60;99.90;;;;;;4813150;29;20464;-79
2023/12/01 17:10:01;;;;;;;29.03;26.57;;;1.60;99.90;;;;;;4851393;29;20458;-78
2023/12/01 17:12:28;;;;;;;28.80;26.40;;;1.60;99.90;;;;;;4892493;29;20438;-79
2023/12/01 17:14:55;;;;;;;29.93;27.23;;;1.60;99.90;;;;;;4889984;29;20456;-79
2023/12/01 17:17:22;;;;;;;30.20;27.50;;;1.60;99.90;;;;;;4878610;29;20473;-78
2023/12/01 17:19:48;;;;;;;30.20;27.63;;;1.60;99.90;;;;;;4868591;29;20486;-79
2023/12/01 17:22:15;;;;;;;30.47;27.77;;;1.60;99.90;;;;;;4888804;29;20286;-78
2023/12/01 17:24:42;;;;;;;30.87;27.97;;;1.60;99.90;;;;;;4895625;29;20489;-78
2023/12/01 17:27:12;;;;;;;30.83;28.13;;;1.60;99.90;;;;;;4868438;29;20442;-78
2023/12/01 17:29:40;;;;;;;30.93;28.30;;;1.60;99.90;;;;;;4878597;29;20254;-79
2023/12/01 17:32:07;;;;;;;30.20;27.43;;;1.70;99.90;;;;;;4877038;29;20229;-78
2023/12/01 17:34:34;;;;;;;30.57;27.93;;;1.60;99.90;;;;;;4878017;29;20584;-78
2023/12/01 17:37:01;;;;;;;30.83;27.77;;;1.60;99.90;;;;;;4884242;29;20506;-78
2023/12/01 17:39:28;;;;;;;29.20;26.60;;;1.60;99.90;;;;;;4872187;29;20456;-80
2023/12/01 18:03:05;;;;;;;28.40;25.80;;;1.60;99.90;;;;;;4902413;29;20864;-77
2023/12/01 18:05:31;;;;;;;29.63;26.90;;;1.60;99.90;;;;;;4882618;29;20468;-78
2023/12/01 18:07:58;;;;;;;28.90;26.30;;;1.50;99.90;;;;;;4863397;29;20826;-79
2023/12/01 18:10:25;;;;;;;27.90;25.40;;;1.60;99.90;;;;;;4873404;29;20524;-78
2023/12/01 18:12:52;;;;;;;30.03;27.37;;;1.60;99.90;;;;;;4873351;29;20449;-79
2023/12/01 18:15:19;;;;;;;29.10;26.50;;;1.50;99.90;;;;;;4888401;29;20539;-78
2023/12/01 18:17:46;;;;;;;28.70;26.20;;;1.50;99.90;;;;;;4875674;29;20481;-78
2023/12/01 18:20:14;;;;;;;27.70;25.30;;;1.50;99.90;;;;;;4893488;29;20268;-78
2023/12/01 18:22:41;;;;;;;27.67;25.13;;;1.50;99.90;;;;;;4879021;29;20939;-79
2023/12/01 18:25:08;;;;;;;28.10;25.67;;;1.50;99.90;;;;;;4868352;29;20533;-78
2023/12/01 18:27:35;;;;;;;26.90;24.50;;;1.50;99.90;;;;;;4868276;29;20448;-78
2023/12/01 18:30:03;;;;;;;31.80;28.70;;;1.50;99.90;;;;;;4867219;29;20209;-76
2023/12/01 18:32:30;;;;;;;28.20;25.63;;;1.60;99.90;;;;;;4883721;29;20516;-76
2023/12/01 18:34:57;;;;;;;27.47;24.93;;;1.60;99.90;;;;;;4880222;29;20477;-77
2023/12/01 18:37:25;;;;;;;27.33;24.93;;;1.60;99.90;;;;;;4880766;29;20907;-78
2023/12/01 18:39:51;;;;;;;28.10;25.43;;;1.60;99.90;;;;;;4900549;29;20451;-78
2023/12/01 18:42:18;;;;;;;27.83;25.33;;;1.60;99.90;;;;;;4896098;29;20464;-78
2023/12/01 18:52:15;;;;;;;27.57;25.10;;;1.60;99.90;;;;;;4816591;29;20496;-78
2023/12/01 18:55:12;;;;;;;27.53;25.10;;;1.60;99.90;;;;;;4801994;29;20449;-78
2023/12/01 18:58:03;;;;;;;27.87;25.30;;;1.60;99.90;;;;;;4827232;29;20488;-79
2023/12/01 19:04:20;;;;;;;28.43;25.83;;;1.60;99.90;;;;;;4861643;29;20494;-78
2023/12/01 19:37:01;;;;;;;33.67;30.07;;;1.50;99.90;;;;;;4955074;23;20539;-79
2023/12/01 19:39:44;;;;;;;33.20;29.70;;;1.50;99.90;;;;;;4893985;29;20441;-78
2023/12/01 19:42:37;;;;;;;30.33;27.43;;;1.50;99.90;;;;;;4889118;29;20291;-79
2023/12/01 19:45:34;;;;;;;30.77;27.57;;;1.50;99.90;;;;;;4901091;29;20226;-79
2023/12/01 19:48:41;;;;;;;31.83;28.50;;;1.50;99.90;;;;;;4905329;29;20839;-79
2023/12/01 20:19:25;;;;;;;30.63;27.60;;;1.40;99.90;;;;;;5832546;23;20441;-78
2023/12/01 20:28:42;;;;;;;28.77;25.87;;;1.50;99.90;;;;;;4866594;29;20497;-77
2023/12/01 20:31:49;;;;;;;30.00;27.10;;;1.50;99.90;;;;;;4890956;29;20292;-77
2023/12/01 21:11:26;;;;;;;28.37;25.57;;;1.50;99.90;;;;;;4814643;29;20540;-77
2023/12/01 22:37:05;;;;;;;28.63;25.77;;;1.40;99.90;;;;;;4868336;29;20478;-78
2023/12/01 22:39:32;;;;;;;29.47;26.37;;;1.40;99.90;;;;;;4892090;29;20205;-78
2023/12/01 22:41:58;;;;;;;29.47;26.63;;;1.30;99.90;;;;;;4885998;29;20470;-78
2023/12/01 22:44:26;;;;;;;31.67;28.37;;;1.30;99.90;;;;;;4877276;29;20496;-78
2023/12/01 22:46:59;;;;;;;29.60;26.80;;;1.30;99.90;;;;;;4870130;29;20252;-78
2023/12/01 22:49:26;;;;;;;29.10;26.27;;;1.30;99.90;;;;;;4870283;29;20461;-78
2023/12/01 22:51:53;;;;;;;28.83;26.20;;;1.30;99.90;;;;;;4870424;29;20732;-78
2023/12/01 22:54:21;;;;;;;29.93;27.10;;;1.40;99.90;;;;;;4891486;29;20448;-77
2023/12/01 22:56:48;;;;;;;30.03;26.87;;;1.40;99.90;;;;;;4871736;29;20500;-79
2023/12/01 22:59:15;;;;;;;29.83;26.97;;;1.30;99.90;;;;;;4875212;29;20208;-77
2023/12/01 23:01:41;;;;;;;28.23;25.33;;;1.30;99.90;;;;;;4870417;29;20216;-78
2023/12/01 23:04:08;;;;;;;28.90;26.17;;;1.30;99.90;;;;;;4870213;29;20462;-78
2023/12/01 23:06:35;;;;;;;29.27;26.30;;;1.30;99.90;;;;;;4890891;29;20462;-78
2023/12/01 23:09:03;;;;;;;30.97;27.63;;;1.30;99.90;;;;;;4885529;29;20193;-77
2023/12/01 23:11:31;;;;;;;30.00;26.90;;;1.30;99.90;;;;;;4873351;29;20205;-78
2023/12/01 23:13:58;;;;;;;30.37;27.37;;;1.30;99.90;;;;;;4864321;29;20205;-77
2023/12/01 23:16:24;;;;;;;31.43;28.33;;;1.30;99.90;;;;;;4891038;29;20522;-78
2023/12/01 23:18:51;;;;;;;30.80;27.57;;;1.30;99.90;;;;;;4887362;29;20205;-78
2023/12/01 23:21:18;;;;;;;30.00;27.13;;;1.30;99.90;;;;;;4869796;29;20820;-78
2023/12/01 23:23:45;;;;;;;29.63;26.93;;;1.40;99.90;;;;;;4869352;29;20449;-78
2023/12/01 23:26:12;;;;;;;29.43;26.53;;;1.30;99.90;;;;;;4870853;29;20229;-78
2023/12/01 23:28:40;;;;;;;29.87;26.80;;;1.30;99.90;;;;;;4891615;29;20192;-78
2023/12/01 23:31:08;;;;;;;29.77;26.77;;;1.30;99.90;;;;;;4887571;29;20661;-78
2023/12/01 23:33:35;;;;;;;31.53;28.23;;;1.30;99.90;;;;;;4874212;29;20661;-78
2023/12/01 23:36:02;;;;;;;30.07;27.27;;;1.30;99.90;;;;;;4870661;29;20233;-78
2023/12/01 23:38:29;;;;;;;29.70;26.70;;;1.30;99.90;;;;;;4870655;29;20232;-79
2023/12/01 23:40:55;;;;;;;32.47;29.07;;;1.30;99.90;;;;;;4893256;29;20201;-78
2023/12/01 23:43:23;;;;;;;32.10;28.80;;;1.30;99.90;;;;;;4876885;29;20246;-78
2023/12/01 23:45:51;;;;;;;32.90;29.33;;;1.30;99.90;;;;;;4894630;29;20216;-77
2023/12/01 23:48:18;;;;;;;29.07;26.27;;;1.30;99.90;;;;;;4891267;29;20205;-78
2023/12/01 23:50:45;;;;;;;31.83;28.53;;;1.20;99.90;;;;;;4871787;29;20237;-78
2023/12/01 23:53:12;;;;;;;32.47;29.00;;;1.20;99.90;;;;;;4885837;29;20438;-78